Time;durP1;ratioP1;P1;durP2;ratioP2;P2;SDS_P1;SDS_P2;PMS_P1;PMS_P2;Temp;Humidity;BMP_temperature;BMP_pressure;BME280_temperature;BME280_humidity;BME280_pressure;Samples;Min_cycle;Max_cycle;Signal;HPM_P1;HPM_P2
2021/03/30 00:01:31;;;;;;;8.87;4.93;;;9.50;1.00;;;;;;4951374;28;21026;-76
2021/03/30 00:03:58;;;;;;;11.20;5.07;;;9.50;1.00;;;;;;4951160;29;20524;-75
2021/03/30 00:06:24;;;;;;;7.87;4.60;;;9.50;1.00;;;;;;4951673;29;20527;-75
2021/03/30 00:08:51;;;;;;;7.47;5.23;;;9.50;1.00;;;;;;4951406;28;20540;-75
2021/03/30 00:11:17;;;;;;;7.97;5.37;;;9.50;1.00;;;;;;4953415;29;21003;-75
2021/03/30 00:13:44;;;;;;;7.80;5.23;;;9.50;1.00;;;;;;4936274;29;20472;-75
2021/03/30 00:16:11;;;;;;;8.23;4.70;;;9.50;1.00;;;;;;4953295;29;20799;-75
2021/03/30 00:18:38;;;;;;;9.73;5.27;;;9.40;1.00;;;;;;4953847;28;20527;-75
2021/03/30 00:21:05;;;;;;;7.57;5.43;;;9.40;1.00;;;;;;4957618;28;20858;-75
2021/03/30 00:23:32;;;;;;;13.13;5.47;;;9.50;1.00;;;;;;4952561;28;20973;-75
2021/03/30 00:25:58;;;;;;;7.83;5.23;;;9.40;1.00;;;;;;4950878;29;20990;-75
2021/03/30 00:28:25;;;;;;;9.20;5.30;;;9.40;1.00;;;;;;4950930;29;20433;-75
2021/03/30 00:30:52;;;;;;;6.53;4.90;;;9.40;1.00;;;;;;4951169;29;20444;-75
2021/03/30 00:33:19;;;;;;;6.60;5.10;;;9.40;1.00;;;;;;4970642;28;20474;-75
2021/03/30 00:35:47;;;;;;;7.57;4.80;;;9.40;1.00;;;;;;4972604;28;20524;-75
2021/03/30 00:38:14;;;;;;;7.93;5.03;;;9.40;1.00;;;;;;4972624;28;20535;-76
2021/03/30 00:40:40;;;;;;;9.27;5.40;;;9.30;1.00;;;;;;4954750;28;20536;-75
2021/03/30 00:43:07;;;;;;;9.60;4.93;;;9.30;1.00;;;;;;4957198;28;21049;-75
2021/03/30 00:45:34;;;;;;;8.83;5.13;;;9.30;1.00;;;;;;4963230;28;20487;-75
2021/03/30 00:48:00;;;;;;;7.43;5.00;;;9.30;1.00;;;;;;4970352;28;20592;-76
2021/03/30 00:50:31;;;;;;;5.40;4.50;;;9.30;1.00;;;;;;4969953;28;21040;-75
2021/03/30 00:53:00;;;;;;;5.30;4.00;;;9.30;1.00;;;;;;4937649;28;20502;-76
2021/03/30 00:55:27;;;;;;;5.37;4.23;;;9.20;1.00;;;;;;4938871;29;20846;-76
2021/03/30 00:57:54;;;;;;;9.17;5.13;;;9.20;1.00;;;;;;4953013;29;20819;-76
2021/03/30 01:00:22;;;;;;;7.90;5.07;;;9.20;1.00;;;;;;4952715;29;20536;-75
2021/03/30 01:02:49;;;;;;;6.50;4.63;;;9.20;1.00;;;;;;4953130;29;20489;-75
2021/03/30 01:05:17;;;;;;;7.53;4.77;;;9.20;1.00;;;;;;4939801;28;20543;-76
2021/03/30 01:07:56;;;;;;;7.60;4.60;;;9.20;1.00;;;;;;4953884;28;20439;-75
2021/03/30 01:10:35;;;;;;;6.30;4.37;;;9.10;1.00;;;;;;4933747;29;20433;-76
2021/03/30 01:13:15;;;;;;;5.90;4.57;;;9.20;1.00;;;;;;4953906;28;20455;-75
2021/03/30 01:15:48;;;;;;;9.03;4.63;;;9.10;1.00;;;;;;4954497;29;20483;-76
2021/03/30 01:18:22;;;;;;;7.07;4.17;;;9.10;1.00;;;;;;4975408;28;20450;-75
2021/03/30 01:21:09;;;;;;;8.43;5.03;;;9.10;1.00;;;;;;4975545;28;20530;-75
2021/03/30 01:23:53;;;;;;;6.20;4.50;;;9.10;1.00;;;;;;4975612;28;20644;-75
2021/03/30 01:26:32;;;;;;;5.67;4.17;;;9.10;1.00;;;;;;4953973;28;20503;-75
2021/03/30 01:29:19;;;;;;;5.20;4.30;;;9.00;1.00;;;;;;4960252;28;20443;-75
2021/03/30 01:31:50;;;;;;;9.30;4.20;;;9.00;1.00;;;;;;4953357;29;20532;-75
2021/03/30 01:34:21;;;;;;;8.83;4.97;;;9.00;1.00;;;;;;4936704;29;20558;-75
2021/03/30 01:36:50;;;;;;;7.57;4.67;;;9.00;1.00;;;;;;4954328;29;20447;-75
2021/03/30 01:39:18;;;;;;;8.50;4.37;;;8.90;1.00;;;;;;4937765;29;20465;-75
2021/03/30 01:41:48;;;;;;;5.83;3.93;;;8.90;1.00;;;;;;4924915;29;20555;-75
2021/03/30 01:44:18;;;;;;;5.40;4.00;;;8.90;1.00;;;;;;4939300;29;20499;-75
2021/03/30 01:46:46;;;;;;;6.20;4.40;;;8.90;1.00;;;;;;4955671;29;20295;-75
2021/03/30 01:49:13;;;;;;;6.20;4.20;;;8.90;1.00;;;;;;4941653;28;20515;-75
2021/03/30 01:51:41;;;;;;;5.07;3.87;;;8.90;1.00;;;;;;4959189;28;20515;-75
2021/03/30 01:54:11;;;;;;;6.70;3.97;;;8.80;1.00;;;;;;4953304;29;20480;-75
2021/03/30 01:56:40;;;;;;;7.53;4.30;;;8.80;1.00;;;;;;4936225;29;20563;-75
2021/03/30 01:59:09;;;;;;;5.30;3.40;;;8.80;1.00;;;;;;4936668;29;20475;-75
2021/03/30 02:01:38;;;;;;;5.07;4.10;;;8.80;1.00;;;;;;4962369;28;20444;-75
2021/03/30 02:04:05;;;;;;;7.40;4.90;;;8.70;1.00;;;;;;4957546;28;20585;-75
2021/03/30 02:06:34;;;;;;;7.83;4.27;;;8.70;1.00;;;;;;4974959;28;20543;-75
2021/03/30 02:09:07;;;;;;;5.63;4.60;;;8.70;1.00;;;;;;4957672;28;20464;-75
2021/03/30 02:11:41;;;;;;;5.33;3.97;;;8.70;1.00;;;;;;4948202;28;20463;-75
2021/03/30 02:14:08;;;;;;;6.60;4.10;;;8.70;1.00;;;;;;4958596;28;20461;-75
2021/03/30 02:16:40;;;;;;;6.60;4.10;;;8.70;1.00;;;;;;4952702;29;20452;-75
2021/03/30 02:19:13;;;;;;;6.73;4.37;;;8.70;1.00;;;;;;4935950;29;20197;-75
2021/03/30 02:21:45;;;;;;;9.00;4.03;;;8.60;1.00;;;;;;4953719;29;20809;-76
2021/03/30 02:24:13;;;;;;;5.57;4.00;;;8.60;1.00;;;;;;4953728;28;20523;-75
2021/03/30 02:26:42;;;;;;;7.28;4.32;;;8.60;1.00;;;;;;4955355;29;20291;-75
2021/03/30 02:29:14;;;;;;;7.57;4.23;;;8.50;1.00;;;;;;4955137;29;20681;-75
2021/03/30 02:31:43;;;;;;;6.50;3.83;;;8.50;1.00;;;;;;4938076;29;20784;-75
2021/03/30 02:34:11;;;;;;;6.50;4.18;;;8.50;1.00;;;;;;4941036;28;20548;-75
2021/03/30 02:36:39;;;;;;;5.77;3.97;;;8.50;1.00;;;;;;4958129;28;20192;-75
2021/03/30 02:39:08;;;;;;;6.57;3.95;;;8.40;1.00;;;;;;4952519;29;20511;-75
2021/03/30 02:41:37;;;;;;;5.10;3.45;;;8.40;1.00;;;;;;4935827;29;20212;-76
2021/03/30 02:44:07;;;;;;;9.80;4.50;;;8.40;1.00;;;;;;4935634;29;20591;-75
2021/03/30 02:46:35;;;;;;;5.07;3.85;;;8.40;1.00;;;;;;4942843;29;20890;-75
2021/03/30 02:49:03;;;;;;;10.63;4.35;;;8.30;1.00;;;;;;4954943;29;20286;-75
2021/03/30 02:51:32;;;;;;;7.85;4.63;;;8.30;1.00;;;;;;4953585;29;20287;-75
2021/03/30 02:54:00;;;;;;;7.55;4.20;;;8.30;1.00;;;;;;4954642;29;20305;-74
2021/03/30 02:56:27;;;;;;;6.20;4.65;;;8.20;1.00;;;;;;4943325;29;20287;-75
2021/03/30 02:58:55;;;;;;;5.50;4.20;;;8.20;1.00;;;;;;4941865;29;20254;-75
2021/03/30 03:01:23;;;;;;;7.05;4.55;;;8.20;1.00;;;;;;4951881;29;20286;-75
2021/03/30 03:03:52;;;;;;;6.63;4.35;;;8.10;1.00;;;;;;4952365;29;20237;-74
2021/03/30 03:06:20;;;;;;;5.05;4.22;;;8.10;1.00;;;;;;4951296;29;20197;-75
2021/03/30 03:08:48;;;;;;;6.20;4.30;;;8.10;1.00;;;;;;4943266;29;20207;-74
2021/03/30 03:11:17;;;;;;;4.20;3.70;;;8.10;1.00;;;;;;4935110;29;20290;-74
2021/03/30 03:13:47;;;;;;;5.60;3.85;;;8.10;1.00;;;;;;4934956;29;20230;-75
2021/03/30 03:16:14;;;;;;;5.93;3.80;;;8.00;1.00;;;;;;4935176;29;20597;-75
2021/03/30 03:18:42;;;;;;;6.60;3.95;;;8.00;1.00;;;;;;4933027;29;20275;-75
2021/03/30 03:21:09;;;;;;;5.50;4.45;;;8.00;1.00;;;;;;4934655;29;20206;-75
2021/03/30 03:23:38;;;;;;;5.57;4.10;;;8.00;1.00;;;;;;4932091;29;20224;-75
2021/03/30 03:26:06;;;;;;;6.10;4.22;;;7.90;1.00;;;;;;4931311;29;20567;-75
2021/03/30 03:28:33;;;;;;;6.47;3.78;;;7.90;1.00;;;;;;4931607;29;20219;-75
2021/03/30 03:31:00;;;;;;;6.05;4.38;;;7.90;1.00;;;;;;4940638;29;20257;-75
2021/03/30 03:33:28;;;;;;;7.88;4.05;;;7.90;1.00;;;;;;4954090;29;20290;-75
2021/03/30 03:36:07;;;;;;;5.47;4.20;;;7.80;1.00;;;;;;4953351;28;20295;-76
2021/03/30 03:38:34;;;;;;;5.18;4.15;;;7.80;1.00;;;;;;4952492;29;20203;-75
2021/03/30 03:41:01;;;;;;;7.57;4.10;;;7.80;1.00;;;;;;4943314;29;20200;-75
2021/03/30 03:43:28;;;;;;;7.60;4.68;;;7.80;1.00;;;;;;4937919;29;20571;-75
2021/03/30 03:45:54;;;;;;;8.15;4.57;;;7.70;1.00;;;;;;4941830;29;20315;-75
2021/03/30 03:48:21;;;;;;;6.35;4.63;;;7.70;1.00;;;;;;4951342;29;20203;-75
2021/03/30 03:50:50;;;;;;;5.35;3.90;;;7.70;1.00;;;;;;4951433;29;20278;-75
2021/03/30 03:53:18;;;;;;;6.07;3.60;;;7.60;1.00;;;;;;4952185;28;20233;-75
2021/03/30 03:55:49;;;;;;;9.32;4.70;;;7.60;1.00;;;;;;4953719;29;20204;-74
2021/03/30 03:58:21;;;;;;;6.93;4.10;;;7.60;1.00;;;;;;4953504;29;20206;-75
2021/03/30 04:00:48;;;;;;;7.05;4.57;;;7.60;1.00;;;;;;4936543;29;20675;-75
2021/03/30 04:03:21;;;;;;;7.57;4.20;;;7.50;1.00;;;;;;4939458;28;20584;-75
2021/03/30 04:05:55;;;;;;;7.38;4.90;;;7.50;1.00;;;;;;4961007;28;20185;-75
2021/03/30 04:08:25;;;;;;;6.88;4.20;;;7.50;1.00;;;;;;4970935;28;20205;-75
2021/03/30 04:10:53;;;;;;;6.90;4.78;;;7.50;6.90;;;;;;4970456;28;20575;-75
2021/03/30 04:13:22;;;;;;;7.57;4.28;;;7.40;9.70;;;;;;4970367;28;20190;-76
2021/03/30 04:15:48;;;;;;;6.10;4.28;;;7.40;11.70;;;;;;4971680;28;20241;-75
2021/03/30 04:18:15;;;;;;;6.28;4.95;;;7.40;17.10;;;;;;4972540;28;20692;-75
2021/03/30 04:20:42;;;;;;;13.18;5.10;;;7.40;81.60;;;;;;4972848;28;20205;-75
2021/03/30 04:23:09;;;;;;;6.63;4.85;;;7.30;71.80;;;;;;4972703;28;20318;-75
2021/03/30 04:25:36;;;;;;;6.28;4.05;;;;;;;;;;4958902;28;20317;-75
2021/03/30 04:28:02;;;;;;;6.22;4.70;;;7.30;91.40;;;;;;4961886;28;20281;-74
2021/03/30 04:30:30;;;;;;;9.05;4.55;;;7.30;99.90;;;;;;4970341;28;20692;-75
2021/03/30 04:32:56;;;;;;;5.18;3.72;;;7.30;99.90;;;;;;4969940;28;20292;-75
2021/03/30 04:35:23;;;;;;;7.28;4.25;;;7.30;99.90;;;;;;4970194;28;20801;-74
2021/03/30 04:37:50;;;;;;;5.50;3.97;;;7.20;99.90;;;;;;4959351;28;20673;-75
2021/03/30 04:40:17;;;;;;;6.15;4.30;;;7.20;1.00;;;;;;4953000;29;20230;-74
2021/03/30 04:42:44;;;;;;;6.72;4.65;;;7.20;1.00;;;;;;4952981;29;20202;-75
2021/03/30 04:45:11;;;;;;;9.00;4.75;;;7.20;89.10;;;;;;4954374;28;20236;-75
2021/03/30 04:47:39;;;;;;;7.63;4.78;;;7.10;99.90;;;;;;4960110;28;20290;-76
2021/03/30 04:50:09;;;;;;;8.68;5.00;;;7.10;1.00;;;;;;4954396;29;20823;-76
2021/03/30 04:52:36;;;;;;;9.60;4.80;;;7.10;99.90;;;;;;4954711;29;20650;-76
2021/03/30 04:55:02;;;;;;;8.93;4.45;;;7.10;1.20;;;;;;4937848;29;20229;-76
2021/03/30 04:57:29;;;;;;;8.52;4.63;;;7.10;99.90;;;;;;4959220;28;20285;-76
2021/03/30 04:59:55;;;;;;;6.90;4.35;;;7.00;99.90;;;;;;4972139;28;20214;-76
2021/03/30 05:02:22;;;;;;;6.35;4.07;;;7.00;99.90;;;;;;4964161;28;20253;-75
2021/03/30 05:04:50;;;;;;;5.80;3.92;;;7.00;1.00;;;;;;4958844;28;20320;-76
2021/03/30 05:07:16;;;;;;;8.63;5.18;;;7.00;1.00;;;;;;4954459;29;20256;-76
2021/03/30 05:09:43;;;;;;;6.43;4.65;;;6.90;1.00;;;;;;4954239;29;20238;-75
2021/03/30 05:12:10;;;;;;;9.90;4.93;;;6.90;82.10;;;;;;4937301;29;20289;-76
2021/03/30 05:14:37;;;;;;;6.15;4.70;;;6.90;99.90;;;;;;4955346;28;20292;-76
2021/03/30 05:17:04;;;;;;;10.82;5.00;;;6.90;99.90;;;;;;4956553;29;20297;-75
2021/03/30 05:19:30;;;;;;;6.05;4.60;;;6.90;99.90;;;;;;4974067;28;20284;-76
2021/03/30 05:21:58;;;;;;;5.90;4.32;;;6.90;99.90;;;;;;4975471;28;20655;-75
2021/03/30 05:24:25;;;;;;;6.57;4.47;;;6.80;99.90;;;;;;4966186;28;20371;-75
2021/03/30 05:26:51;;;;;;;9.05;4.97;;;6.80;99.90;;;;;;4959797;28;20198;-76
2021/03/30 05:29:18;;;;;;;7.13;5.05;;;6.80;99.90;;;;;;4953618;29;20252;-76
2021/03/30 05:31:44;;;;;;;9.38;5.25;;;6.80;99.90;;;;;;4961589;28;20198;-76
2021/03/30 05:34:11;;;;;;;7.05;5.25;;;6.80;99.90;;;;;;4972992;28;20309;-76
2021/03/30 05:36:37;;;;;;;8.75;5.43;;;6.80;99.90;;;;;;4973522;28;20210;-77
2021/03/30 05:39:06;;;;;;;6.15;5.30;;;6.80;99.90;;;;;;4975504;28;20205;-76
2021/03/30 05:41:32;;;;;;;8.23;5.30;;;6.90;99.90;;;;;;4962525;28;20730;-76
2021/03/30 05:44:00;;;;;;;10.07;5.95;;;6.90;99.90;;;;;;4974941;28;20283;-77
2021/03/30 05:46:27;;;;;;;8.40;5.20;;;6.90;99.90;;;;;;4967097;28;20733;-75
2021/03/30 05:48:54;;;;;;;8.10;5.40;;;6.90;99.90;;;;;;4960025;28;20226;-75
2021/03/30 05:51:22;;;;;;;12.07;5.85;;;7.00;99.90;;;;;;4954769;28;20257;-76
2021/03/30 05:53:58;;;;;;;8.07;6.35;;;7.00;99.90;;;;;;4972729;28;20305;-75
2021/03/30 05:56:26;;;;;;;6.35;5.30;;;7.00;99.90;;;;;;4955463;28;20195;-75
2021/03/30 05:58:56;;;;;;;8.73;5.90;;;7.10;99.90;;;;;;4968154;28;20201;-75
2021/03/30 06:01:25;;;;;;;10.82;6.18;;;7.10;99.90;;;;;;4960018;28;20791;-76
2021/03/30 06:03:54;;;;;;;6.88;5.35;;;7.20;99.90;;;;;;4957678;28;20236;-75
2021/03/30 06:06:20;;;;;;;8.23;6.00;;;7.20;99.90;;;;;;4941535;28;20192;-76
2021/03/30 06:08:47;;;;;;;9.27;5.50;;;7.30;99.90;;;;;;4969933;28;20769;-76
2021/03/30 06:11:14;;;;;;;7.43;5.83;;;7.40;99.90;;;;;;4959111;28;20729;-76
2021/03/30 06:13:56;;;;;;;8.65;5.38;;;7.40;99.90;;;;;;4956277;28;20470;-76
2021/03/30 06:16:26;;;;;;;7.47;5.00;;;7.50;99.90;;;;;;4937269;28;20232;-75
2021/03/30 06:19:03;;;;;;;6.40;5.43;;;7.60;99.90;;;;;;4936878;28;20531;-75
2021/03/30 06:21:30;;;;;;;10.43;5.80;;;7.70;99.90;;;;;;4938026;29;20543;-76
2021/03/30 06:23:59;;;;;;;14.70;6.03;;;7.80;99.90;;;;;;4958620;28;21387;-76
2021/03/30 06:26:26;;;;;;;10.20;5.47;;;7.90;99.90;;;;;;4966128;28;20456;-76
2021/03/30 06:28:52;;;;;;;9.50;6.40;;;8.00;99.90;;;;;;4974140;28;20447;-77
2021/03/30 06:31:20;;;;;;;7.00;5.33;;;8.10;99.90;;;;;;4970637;28;20439;-76
2021/03/30 06:33:51;;;;;;;8.23;5.13;;;8.20;99.90;;;;;;4954479;29;20509;-81
2021/03/30 06:36:20;;;;;;;7.30;5.43;;;8.30;99.90;;;;;;4955268;28;20469;-76
2021/03/30 06:38:50;;;;;;;7.10;5.50;;;8.40;99.90;;;;;;4955924;28;20450;-77
2021/03/30 06:41:31;;;;;;;7.60;4.80;;;8.50;99.90;;;;;;4953988;28;20499;-75
2021/03/30 06:46:47;;;;;;;9.00;5.27;;;8.80;99.90;;;;;;4957502;28;20985;-75
2021/03/30 06:49:16;;;;;;;8.80;5.40;;;8.90;99.90;;;;;;4955213;28;20851;-75
2021/03/30 06:51:42;;;;;;;8.53;5.93;;;9.00;99.90;;;;;;4965891;28;20654;-76
2021/03/30 06:54:10;;;;;;;8.63;5.80;;;9.10;99.90;;;;;;4971289;28;20496;-76
2021/03/30 06:56:52;;;;;;;7.73;5.10;;;9.30;99.90;;;;;;4952756;28;20958;-76
2021/03/30 06:59:19;;;;;;;13.47;5.93;;;9.40;99.90;;;;;;4952171;28;20457;-75
2021/03/30 07:01:50;;;;;;;6.97;5.47;;;9.50;99.90;;;;;;4938059;29;20444;-76
2021/03/30 07:04:18;;;;;;;6.03;5.00;;;9.70;99.90;;;;;;4954772;29;20572;-74
2021/03/30 07:06:50;;;;;;;8.13;5.50;;;9.80;99.90;;;;;;4954628;29;20959;-75
2021/03/30 07:09:17;;;;;;;6.90;4.83;;;9.90;99.90;;;;;;4940966;28;20996;-75
2021/03/30 07:11:44;;;;;;;10.13;6.10;;;10.00;99.90;;;;;;4936530;28;20731;-74
2021/03/30 07:14:11;;;;;;;6.50;4.77;;;10.10;99.90;;;;;;4938206;28;20981;-75
2021/03/30 07:16:49;;;;;;;5.63;4.50;;;10.20;99.90;;;;;;4970459;28;20551;-74
2021/03/30 07:19:18;;;;;;;7.70;4.73;;;10.30;99.90;;;;;;4949351;28;20809;-74
2021/03/30 07:21:52;;;;;;;6.90;4.60;;;10.50;99.90;;;;;;4971692;28;20492;-74
2021/03/30 07:24:23;;;;;;;7.87;5.00;;;10.60;99.90;;;;;;4970663;28;20616;-74
2021/03/30 07:26:54;;;;;;;8.53;4.93;;;10.70;99.90;;;;;;4954650;28;20446;-75
2021/03/30 07:29:26;;;;;;;7.33;5.20;;;10.80;99.90;;;;;;4934869;28;20887;-75
2021/03/30 07:32:03;;;;;;;8.30;5.03;;;10.90;99.90;;;;;;4954226;28;20520;-79
2021/03/30 07:34:37;;;;;;;10.70;4.60;;;11.10;99.90;;;;;;4949673;28;20473;-77
2021/03/30 07:37:08;;;;;;;8.60;5.03;;;11.20;99.90;;;;;;4948402;28;20446;-76
2021/03/30 07:39:44;;;;;;;8.23;4.77;;;11.30;99.90;;;;;;4948640;29;20592;-77
2021/03/30 07:42:11;;;;;;;9.10;5.30;;;11.40;99.90;;;;;;4957549;28;20476;-77
2021/03/30 07:44:39;;;;;;;9.77;4.93;;;11.50;99.90;;;;;;4950608;28;20978;-75
2021/03/30 07:47:07;;;;;;;9.40;5.73;;;11.60;99.90;;;;;;4950057;29;20459;-76
2021/03/30 07:49:39;;;;;;;6.70;4.67;;;11.70;99.90;;;;;;4949356;29;20453;-76
2021/03/30 07:52:17;;;;;;;7.40;5.27;;;11.90;99.90;;;;;;4952159;28;20524;-75
2021/03/30 07:55:13;;;;;;;7.70;5.77;;;12.00;99.90;;;;;;4931292;28;20859;-77
2021/03/30 07:57:58;;;;;;;10.83;5.37;;;12.10;99.90;;;;;;4934674;29;20445;-75
2021/03/30 08:00:48;;;;;;;7.10;4.80;;;12.30;99.90;;;;;;4930617;29;20537;-76
2021/03/30 08:03:19;;;;;;;9.10;5.27;;;12.40;99.90;;;;;;4956791;28;20534;-75
2021/03/30 08:06:04;;;;;;;6.03;5.00;;;12.50;99.90;;;;;;4949823;29;20484;-75
2021/03/30 08:08:31;;;;;;;7.97;5.10;;;12.60;99.90;;;;;;4932820;29;20488;-76
2021/03/30 08:10:57;;;;;;;12.30;5.53;;;12.70;99.90;;;;;;4917354;29;20593;-76
2021/03/30 08:13:27;;;;;;;8.40;5.20;;;12.80;99.90;;;;;;4950501;28;20437;-76
2021/03/30 08:15:55;;;;;;;6.57;5.13;;;12.90;99.90;;;;;;4944714;28;20943;-76
2021/03/30 08:18:26;;;;;;;7.43;5.07;;;13.00;99.90;;;;;;4931791;29;20448;-74
2021/03/30 08:20:59;;;;;;;7.73;5.73;;;13.10;99.90;;;;;;4947470;28;20512;-75
2021/03/30 08:23:27;;;;;;;7.60;5.43;;;13.30;99.90;;;;;;4931495;29;20584;-75
2021/03/30 08:26:15;;;;;;;7.70;4.70;;;13.40;99.90;;;;;;4930323;28;20533;-75
2021/03/30 08:28:58;;;;;;;5.90;4.30;;;13.40;99.90;;;;;;4924153;28;20495;-76
2021/03/30 08:31:28;;;;;;;6.00;4.87;;;13.60;99.90;;;;;;4936029;28;20797;-75
2021/03/30 08:33:58;;;;;;;11.00;4.97;;;13.70;99.90;;;;;;4929976;29;20458;-76
2021/03/30 08:36:28;;;;;;;8.57;4.47;;;13.80;99.90;;;;;;4929726;29;20480;-75
2021/03/30 08:38:57;;;;;;;8.00;4.67;;;13.90;99.90;;;;;;4931039;29;20469;-75
2021/03/30 08:41:53;;;;;;;7.10;5.27;;;14.00;99.90;;;;;;4947781;28;20473;-76
2021/03/30 08:44:22;;;;;;;9.40;5.13;;;14.10;99.90;;;;;;4931287;29;20633;-74
2021/03/30 08:46:51;;;;;;;6.40;4.87;;;14.20;99.90;;;;;;4932211;29;20480;-76
2021/03/30 08:49:28;;;;;;;6.20;4.53;;;14.30;99.90;;;;;;4934629;29;20463;-77
2021/03/30 08:51:58;;;;;;;6.73;4.70;;;14.40;99.90;;;;;;4956675;28;20450;-76
2021/03/30 08:54:26;;;;;;;7.73;4.50;;;14.40;99.90;;;;;;4960865;28;20526;-76
2021/03/30 08:56:58;;;;;;;8.40;4.73;;;14.50;99.90;;;;;;4970008;28;20885;-77
2021/03/30 08:59:27;;;;;;;7.70;4.80;;;14.60;99.90;;;;;;4969946;28;20421;-77
2021/03/30 09:01:59;;;;;;;7.90;4.57;;;14.70;99.90;;;;;;4952967;28;21041;-77
2021/03/30 09:04:31;;;;;;;6.23;5.03;;;14.70;99.90;;;;;;4971152;28;20555;-76
2021/03/30 09:06:59;;;;;;;7.20;4.60;;;14.80;99.90;;;;;;4972217;28;20495;-78
2021/03/30 09:09:33;;;;;;;6.60;4.50;;;14.80;99.90;;;;;;4972050;28;20448;-78
2021/03/30 09:12:00;;;;;;;6.53;4.40;;;14.90;99.90;;;;;;4940835;28;20483;-78
2021/03/30 09:14:27;;;;;;;6.23;4.13;;;15.00;99.90;;;;;;4939506;28;20524;-77
2021/03/30 09:16:53;;;;;;;7.07;4.50;;;15.10;99.90;;;;;;4953399;28;20487;-78
2021/03/30 09:19:26;;;;;;;7.07;4.53;;;15.10;99.90;;;;;;4950654;29;20511;-76
2021/03/30 09:22:00;;;;;;;6.83;4.40;;;15.20;99.90;;;;;;4950514;29;20453;-76
2021/03/30 09:24:36;;;;;;;7.73;4.57;;;15.20;99.90;;;;;;4950103;29;20463;-76
2021/03/30 09:27:04;;;;;;;9.80;4.10;;;15.30;99.90;;;;;;4936568;29;20443;-76
2021/03/30 09:29:31;;;;;;;7.40;4.50;;;15.40;99.90;;;;;;4952815;29;20425;-77
2021/03/30 09:31:58;;;;;;;7.73;4.63;;;15.40;99.60;;;;;;4952678;28;20434;-76
2021/03/30 09:34:25;;;;;;;6.13;5.37;;;15.50;99.30;;;;;;4955624;28;20463;-76
2021/03/30 09:36:56;;;;;;;8.07;4.60;;;15.50;99.10;;;;;;4959859;28;20397;-76
2021/03/30 09:39:25;;;;;;;5.20;3.73;;;15.60;99.90;;;;;;4938937;29;20511;-76
2021/03/30 09:41:53;;;;;;;5.63;3.93;;;15.60;98.80;;;;;;4936706;29;20521;-76
2021/03/30 09:44:21;;;;;;;6.77;4.30;;;15.70;98.90;;;;;;4936637;29;20472;-76
2021/03/30 09:46:50;;;;;;;6.80;4.27;;;15.80;98.00;;;;;;4937066;28;20552;-77
2021/03/30 09:49:20;;;;;;;5.73;4.40;;;15.80;96.90;;;;;;4958232;28;20484;-77
2021/03/30 09:51:48;;;;;;;6.27;4.70;;;15.90;96.10;;;;;;4975272;28;20502;-77
2021/03/30 09:54:31;;;;;;;6.90;3.70;;;15.90;95.70;;;;;;4957868;28;20472;-76
2021/03/30 09:57:00;;;;;;;7.40;4.87;;;16.00;95.10;;;;;;4954884;28;20835;-77
2021/03/30 09:59:28;;;;;;;7.90;4.77;;;16.00;94.50;;;;;;4959440;28;20909;-77
2021/03/30 10:01:56;;;;;;;6.73;3.80;;;16.10;94.00;;;;;;4935319;29;20441;-76
2021/03/30 10:04:25;;;;;;;8.77;4.30;;;16.10;93.30;;;;;;4953217;29;20495;-76
2021/03/30 10:06:53;;;;;;;5.57;4.47;;;16.20;93.00;;;;;;4936299;29;20418;-77
2021/03/30 10:09:19;;;;;;;5.73;4.40;;;16.20;92.30;;;;;;4957656;28;20439;-77
2021/03/30 10:11:52;;;;;;;9.60;3.87;;;16.30;92.50;;;;;;4974732;28;20411;-75
2021/03/30 10:14:25;;;;;;;5.13;3.70;;;16.30;90.80;;;;;;4974538;28;20477;-76
2021/03/30 10:16:53;;;;;;;7.47;4.57;;;16.40;91.50;;;;;;4974926;28;20445;-75
2021/03/30 10:19:21;;;;;;;5.23;3.70;;;16.50;90.50;;;;;;4967002;28;20962;-75
2021/03/30 10:21:52;;;;;;;6.50;3.63;;;16.60;89.10;;;;;;4958977;28;20452;-76
2021/03/30 10:24:19;;;;;;;8.70;5.07;;;16.60;88.50;;;;;;4934592;29;20494;-75
2021/03/30 10:27:03;;;;;;;8.60;4.53;;;16.70;88.00;;;;;;4934318;29;20549;-76
2021/03/30 10:29:32;;;;;;;6.67;4.47;;;16.80;86.10;;;;;;4952335;29;20476;-77
2021/03/30 10:32:03;;;;;;;7.40;5.23;;;16.90;84.00;;;;;;4962212;28;20524;-77
2021/03/30 10:34:32;;;;;;;9.47;5.73;;;17.00;83.60;;;;;;4963776;28;20436;-77
2021/03/30 10:37:02;;;;;;;9.07;5.93;;;17.10;79.20;;;;;;4958079;28;20437;-77
2021/03/30 10:39:30;;;;;;;11.77;6.73;;;17.10;80.30;;;;;;4952386;29;20454;-76
2021/03/30 10:42:03;;;;;;;12.20;6.20;;;17.10;76.40;;;;;;4935420;29;21206;-76
2021/03/30 10:44:35;;;;;;;13.27;8.20;;;17.20;76.00;;;;;;4935046;29;20460;-76
2021/03/30 10:47:14;;;;;;;11.67;8.33;;;17.30;74.00;;;;;;4921023;29;20568;-76
2021/03/30 10:49:41;;;;;;;13.00;8.30;;;17.40;68.20;;;;;;4937617;29;20540;-76
2021/03/30 10:52:15;;;;;;;14.97;9.13;;;17.40;1.00;;;;;;4921935;29;20469;-77
2021/03/30 10:54:43;;;;;;;12.83;7.73;;;17.50;1.00;;;;;;4954679;29;20469;-76
2021/03/30 10:57:14;;;;;;;15.73;8.10;;;17.60;1.00;;;;;;4958564;28;20419;-77
2021/03/30 10:59:42;;;;;;;14.47;7.50;;;17.60;1.00;;;;;;4964113;28;20440;-76
2021/03/30 11:02:09;;;;;;;11.50;7.63;;;17.70;1.00;;;;;;4971347;28;20440;-76
2021/03/30 11:04:36;;;;;;;14.10;8.03;;;17.80;1.00;;;;;;4971188;28;20579;-76
2021/03/30 11:07:03;;;;;;;11.80;7.47;;;17.80;1.00;;;;;;4972065;28;20835;-76
2021/03/30 11:09:29;;;;;;;11.13;6.90;;;17.90;1.00;;;;;;4958708;28;20461;-75
2021/03/30 11:11:56;;;;;;;11.77;7.40;;;17.90;1.00;;;;;;4954438;29;20897;-75
2021/03/30 11:14:23;;;;;;;10.37;6.77;;;18.00;1.00;;;;;;4954196;29;20553;-75
2021/03/30 11:16:50;;;;;;;12.73;6.33;;;18.10;1.00;;;;;;4954001;29;20437;-76
2021/03/30 11:19:17;;;;;;;8.63;5.93;;;18.10;1.00;;;;;;4957856;28;20515;-75
2021/03/30 11:21:45;;;;;;;11.07;6.00;;;18.20;1.00;;;;;;4945516;28;20447;-75
2021/03/30 11:24:15;;;;;;;8.37;5.10;;;18.30;1.00;;;;;;4938262;28;20496;-76
2021/03/30 11:26:43;;;;;;;11.33;6.50;;;18.30;1.00;;;;;;4970756;28;20802;-76
2021/03/30 11:29:13;;;;;;;8.07;5.47;;;18.40;1.00;;;;;;4971273;28;20444;-76
2021/03/30 11:31:53;;;;;;;7.80;4.80;;;18.40;1.00;;;;;;4972325;28;20497;-76
2021/03/30 11:34:26;;;;;;;9.03;4.70;;;18.50;1.00;;;;;;4973427;28;20933;-76
2021/03/30 11:36:57;;;;;;;5.73;4.20;;;18.50;1.00;;;;;;4973325;28;20528;-76
2021/03/30 11:39:24;;;;;;;8.60;4.23;;;18.60;1.00;;;;;;4972344;28;20495;-76
2021/03/30 11:41:51;;;;;;;4.73;3.60;;;18.60;1.00;;;;;;4957952;28;20453;-77
2021/03/30 11:44:17;;;;;;;6.27;3.67;;;18.70;1.00;;;;;;4964770;28;20523;-77
2021/03/30 11:46:45;;;;;;;7.33;4.07;;;18.70;1.00;;;;;;4970605;28;20527;-76
2021/03/30 11:49:11;;;;;;;6.00;3.60;;;18.70;1.00;;;;;;4970973;28;20491;-77
2021/03/30 11:51:38;;;;;;;6.83;3.90;;;18.80;1.00;;;;;;4971388;28;20543;-76
2021/03/30 11:54:05;;;;;;;5.60;3.50;;;18.80;1.00;;;;;;4957146;28;20572;-76
2021/03/30 11:56:32;;;;;;;12.63;4.20;;;18.80;1.00;;;;;;4935894;29;20882;-75
2021/03/30 11:58:58;;;;;;;5.07;3.83;;;18.80;1.00;;;;;;4953636;29;20456;-76
2021/03/30 12:01:25;;;;;;;5.60;3.07;;;18.80;1.00;;;;;;4953781;28;20473;-76
2021/03/30 12:03:52;;;;;;;4.80;3.33;;;18.80;1.00;;;;;;4957669;28;20981;-76
2021/03/30 12:06:19;;;;;;;10.43;4.17;;;18.90;1.00;;;;;;4954132;28;20500;-78
2021/03/30 12:08:45;;;;;;;5.97;3.13;;;18.90;1.00;;;;;;4951188;29;20532;-76
2021/03/30 12:11:12;;;;;;;6.43;4.43;;;18.90;1.00;;;;;;4951234;29;20440;-76
2021/03/30 12:13:40;;;;;;;6.20;3.53;;;18.90;1.00;;;;;;4951454;29;20548;-77
2021/03/30 12:16:07;;;;;;;5.97;3.80;;;18.90;1.00;;;;;;4967866;28;20483;-76
2021/03/30 12:18:33;;;;;;;5.60;3.50;;;18.90;1.00;;;;;;4955519;28;20447;-76
2021/03/30 12:21:01;;;;;;;5.70;3.60;;;19.00;1.00;;;;;;4972517;28;20443;-76
2021/03/30 12:23:28;;;;;;;8.83;4.57;;;18.90;1.00;;;;;;4962903;28;21028;-76
2021/03/30 12:25:54;;;;;;;5.60;3.17;;;19.00;1.00;;;;;;4957032;28;20480;-76
2021/03/30 12:28:21;;;;;;;6.77;3.53;;;19.00;1.00;;;;;;4969003;28;20466;-76
2021/03/30 12:30:48;;;;;;;5.67;3.67;;;19.00;1.00;;;;;;4970236;28;20535;-76
2021/03/30 12:33:14;;;;;;;6.43;3.50;;;19.00;1.00;;;;;;4970220;28;20961;-76
2021/03/30 12:35:42;;;;;;;3.60;3.13;;;19.00;1.00;;;;;;4946905;29;20572;-75
2021/03/30 12:38:09;;;;;;;7.27;3.43;;;19.00;1.00;;;;;;4953270;29;20528;-76
2021/03/30 12:40:37;;;;;;;5.23;2.90;;;19.10;1.00;;;;;;4952983;29;20978;-76
2021/03/30 12:43:04;;;;;;;4.20;2.83;;;19.10;1.00;;;;;;4953197;29;20434;-76
2021/03/30 12:45:34;;;;;;;5.27;3.37;;;19.10;1.00;;;;;;4938430;28;20584;-76
2021/03/30 12:48:01;;;;;;;5.60;3.30;;;19.10;1.00;;;;;;4956544;28;21028;-76
2021/03/30 12:50:29;;;;;;;4.60;3.10;;;19.10;1.00;;;;;;4950258;29;20488;-76
2021/03/30 12:52:55;;;;;;;3.87;3.20;;;19.10;1.00;;;;;;4950578;29;20445;-76
2021/03/30 12:55:24;;;;;;;3.73;2.37;;;19.10;1.00;;;;;;4950979;29;20517;-75
2021/03/30 12:57:51;;;;;;;3.17;2.60;;;19.10;1.00;;;;;;4959102;28;20510;-76
2021/03/30 13:00:19;;;;;;;3.30;2.37;;;19.10;1.00;;;;;;4972156;28;20949;-76
2021/03/30 13:02:46;;;;;;;4.20;2.50;;;19.10;1.00;;;;;;4972074;28;20477;-76
2021/03/30 13:05:13;;;;;;;4.13;2.63;;;19.10;1.00;;;;;;4971979;28;20583;-76
2021/03/30 13:07:39;;;;;;;4.80;2.50;;;19.10;1.00;;;;;;4963738;28;20441;-76
2021/03/30 13:10:08;;;;;;;3.90;2.40;;;19.10;1.00;;;;;;4959968;28;20473;-76
2021/03/30 13:12:36;;;;;;;3.23;2.50;;;19.10;1.00;;;;;;4953819;29;20885;-77